createdAt,value
2018-01-12T00:00:28.764Z,25.67
2018-01-12T00:02:57.648Z,25.87
2018-01-12T00:05:26.503Z,22.17
2018-01-12T00:07:55.344Z,25.33
2018-01-12T00:10:24.246Z,25.70
2018-01-12T00:12:53.088Z,26.00
2018-01-12T00:15:22.430Z,27.07
2018-01-12T00:17:51.384Z,27.20
2018-01-12T00:20:20.258Z,26.73
2018-01-12T00:22:49.095Z,15.00
2018-01-12T00:25:18.111Z,24.17
2018-01-12T00:27:46.956Z,25.33
2018-01-12T00:30:16.704Z,26.27
2018-01-12T00:32:45.600Z,25.30
2018-01-12T00:35:14.854Z,27.07
2018-01-12T00:37:43.704Z,25.00
2018-01-12T00:40:12.590Z,25.23
2018-01-12T00:42:41.776Z,25.63
2018-01-12T00:45:10.627Z,25.57
2018-01-12T00:47:39.514Z,24.90
2018-01-12T00:50:08.346Z,28.50
2018-01-12T00:52:37.186Z,27.37
2018-01-12T00:55:06.836Z,25.20
2018-01-12T00:57:35.644Z,23.73
2018-01-12T01:00:04.476Z,25.07
2018-01-12T01:02:33.668Z,25.43
2018-01-12T01:05:02.515Z,24.57
2018-01-12T01:07:31.352Z,25.77
2018-01-12T01:10:00.240Z,26.17
2018-01-12T01:12:30.080Z,25.73
2018-01-12T01:15:00.504Z,25.93
2018-01-12T01:17:29.398Z,23.50
2018-01-12T01:19:58.277Z,26.90
2018-01-12T01:22:27.131Z,24.87
2018-01-12T01:24:55.984Z,24.17
2018-01-12T01:27:24.830Z,21.07
2018-01-12T01:29:53.690Z,25.33
2018-01-12T01:32:22.580Z,26.33
2018-01-12T01:34:51.458Z,26.47
2018-01-12T01:37:20.306Z,28.03
2018-01-12T01:39:49.556Z,25.83
2018-01-12T01:42:18.394Z,20.90
2018-01-12T01:44:47.257Z,28.07
2018-01-12T01:47:16.332Z,26.37
2018-01-12T01:49:45.172Z,27.70
2018-01-12T01:52:14.006Z,26.57
2018-01-12T01:54:42.918Z,26.70
2018-01-12T01:57:12.308Z,28.33
2018-01-12T01:59:42.010Z,27.20
2018-01-12T02:02:10.914Z,27.27
2018-01-12T02:04:39.813Z,24.50
2018-01-12T02:07:08.652Z,27.80
2018-01-12T02:09:37.542Z,27.80
2018-01-12T02:12:06.372Z,28.00
2018-01-12T02:14:35.560Z,27.73
2018-01-12T02:17:04.438Z,20.43
2018-01-12T02:19:33.310Z,22.33
2018-01-12T02:22:02.160Z,26.20
2018-01-12T02:24:31.042Z,27.40
2018-01-12T02:26:59.942Z,26.90
2018-01-12T02:29:28.786Z,27.97
2018-01-12T02:31:57.689Z,24.80
2018-01-12T02:34:26.535Z,25.00
2018-01-12T02:36:55.391Z,25.47
2018-01-12T02:39:24.768Z,26.20
2018-01-12T02:41:53.874Z,25.20
2018-01-12T02:44:22.802Z,23.03
2018-01-12T02:46:51.670Z,25.83
2018-01-12T02:49:20.513Z,25.53
2018-01-12T02:51:49.357Z,23.07
2018-01-12T02:54:18.253Z,19.73
2018-01-12T02:56:47.350Z,23.97
2018-01-12T02:59:16.308Z,22.20
2018-01-12T03:01:45.208Z,23.83
2018-01-12T03:04:14.045Z,24.53
2018-01-12T03:06:42.943Z,18.93
2018-01-12T03:09:11.840Z,25.43
2018-01-12T03:11:40.684Z,23.60
2018-01-12T03:14:09.520Z,23.20
2018-01-12T03:16:38.400Z,24.40
2018-01-12T03:19:07.292Z,23.70
2018-01-12T03:21:36.138Z,23.33
2018-01-12T03:24:05.033Z,26.70
2018-01-12T03:26:34.828Z,25.23
2018-01-12T03:29:03.702Z,22.57
2018-01-12T03:31:32.569Z,23.70
2018-01-12T03:34:01.430Z,21.10
2018-01-12T03:36:30.288Z,24.33
2018-01-12T03:38:59.410Z,19.70
2018-01-12T03:41:28.254Z,18.60
2018-01-12T03:43:57.090Z,24.07
2018-01-12T03:46:25.970Z,22.87
2018-01-12T03:48:54.838Z,23.43
2018-01-12T03:51:23.854Z,22.70
2018-01-12T03:53:52.734Z,23.10
2018-01-12T03:56:21.564Z,18.00
2018-01-12T03:58:50.416Z,22.17
2018-01-12T04:01:19.288Z,23.80
2018-01-12T04:03:48.138Z,20.73
2018-01-12T04:06:16.984Z,22.77
2018-01-12T04:08:45.842Z,23.77
2018-01-12T04:11:14.692Z,22.83
2018-01-12T04:13:43.579Z,24.33
2018-01-12T04:16:12.492Z,21.40
2018-01-12T04:18:41.345Z,17.47
2018-01-12T04:21:10.204Z,18.03
2018-01-12T04:23:39.100Z,23.03
2018-01-12T04:26:07.930Z,20.03
2018-01-12T04:28:37.355Z,19.30
2018-01-12T04:31:06.232Z,24.07
2018-01-12T04:33:35.072Z,22.83
2018-01-12T04:36:03.929Z,22.63
2018-01-12T04:38:32.820Z,22.90
2018-01-12T04:41:03.055Z,24.40
2018-01-12T04:43:31.907Z,23.93
2018-01-12T04:46:00.799Z,17.20
2018-01-12T04:48:30.377Z,24.77
2018-01-12T04:50:59.214Z,20.27
2018-01-12T04:53:28.107Z,25.13
2018-01-12T04:55:57.893Z,24.83
2018-01-12T04:58:26.738Z,24.40
2018-01-12T05:00:55.636Z,25.03
2018-01-12T05:03:24.522Z,25.23
2018-01-12T05:05:53.616Z,22.90
2018-01-12T05:08:22.498Z,24.03
2018-01-12T05:10:51.361Z,23.33
2018-01-12T05:13:20.208Z,22.17
2018-01-12T05:15:49.072Z,23.00
2018-01-12T05:18:17.914Z,25.57
2018-01-12T05:20:46.754Z,21.67
2018-01-12T05:23:16.477Z,21.53
2018-01-12T05:25:45.335Z,24.70
2018-01-12T05:28:15.088Z,25.33
2018-01-12T05:30:47.121Z,23.53
2018-01-12T05:33:15.954Z,23.90
2018-01-12T05:40:58.929Z,23.87
2018-01-12T05:43:28.829Z,18.33
2018-01-12T05:45:58.407Z,21.53
2018-01-12T05:48:28.845Z,22.33
2018-01-12T05:50:57.838Z,23.67
2018-01-12T05:53:26.722Z,22.37
2018-01-12T05:55:55.651Z,20.67
2018-01-12T05:58:24.495Z,22.57
2018-01-12T06:00:59.154Z,20.70
2018-01-12T06:03:34.512Z,22.73
2018-01-12T06:06:04.249Z,25.93
2018-01-12T06:08:33.113Z,21.07
2018-01-12T06:11:02.039Z,22.93
2018-01-12T06:13:30.967Z,20.77
2018-01-12T06:15:59.857Z,25.47
2018-01-12T06:18:28.739Z,20.10
2018-01-12T06:20:58.139Z,24.87
2018-01-12T06:23:26.971Z,23.97
2018-01-12T06:25:55.843Z,23.97
2018-01-12T06:28:24.725Z,25.30
2018-01-12T06:30:54.074Z,25.77
2018-01-12T06:33:22.968Z,17.00
2018-01-12T06:35:51.826Z,24.50
2018-01-12T06:38:20.673Z,26.93
2018-01-12T06:40:49.555Z,26.20
2018-01-12T06:43:19.073Z,26.77
2018-01-12T06:45:47.997Z,22.10
2018-01-12T06:48:16.914Z,24.50
2018-01-12T06:50:45.803Z,26.53
2018-01-12T06:53:15.552Z,22.80
2018-01-12T06:55:44.406Z,21.27
2018-01-12T06:58:14.484Z,24.90
2018-01-12T07:00:43.335Z,25.03
2018-01-12T07:03:12.219Z,24.70
2018-01-12T07:05:41.114Z,27.37
2018-01-12T07:08:09.949Z,23.30
2018-01-12T07:10:38.817Z,24.87
2018-01-12T07:13:07.677Z,25.23
2018-01-12T07:15:36.515Z,27.23
2018-01-12T07:18:05.373Z,26.53
2018-01-12T07:20:40.351Z,27.60
2018-01-12T07:23:14.938Z,21.67
2018-01-12T07:25:43.852Z,25.07
2018-01-12T07:28:12.720Z,25.90
2018-01-12T07:30:41.562Z,24.67
2018-01-12T07:33:10.459Z,26.27
2018-01-12T07:35:39.296Z,31.13
2018-01-12T07:38:08.141Z,24.03
2018-01-12T07:40:37.063Z,26.13
2018-01-12T07:43:06.169Z,26.07
2018-01-12T07:45:35.041Z,26.80
2018-01-12T07:48:03.957Z,27.40
2018-01-12T07:50:32.799Z,26.67
2018-01-12T07:53:07.523Z,26.17
2018-01-12T07:55:36.393Z,27.00
2018-01-12T07:58:05.522Z,25.53
2018-01-12T08:00:40.149Z,25.30
2018-01-12T08:03:08.999Z,23.20
2018-01-12T08:05:37.894Z,28.37
2018-01-12T08:08:06.787Z,27.47
2018-01-12T08:10:35.628Z,24.83
2018-01-12T08:13:04.486Z,22.63
2018-01-12T08:15:33.356Z,26.23
2018-01-12T08:18:03.066Z,26.47
2018-01-12T08:20:32.468Z,27.83
2018-01-12T08:23:01.325Z,27.23
2018-01-12T08:25:30.210Z,26.47
2018-01-12T08:27:59.065Z,24.90
2018-01-12T08:30:28.836Z,25.77
2018-01-12T08:32:58.311Z,25.83
2018-01-12T08:35:27.930Z,27.37
2018-01-12T08:37:56.782Z,26.10
2018-01-12T08:40:26.602Z,25.37
2018-01-12T08:42:55.518Z,25.93
2018-01-12T08:45:24.366Z,25.10
2018-01-12T08:47:53.314Z,27.23
2018-01-12T08:50:22.178Z,27.10
2018-01-12T08:52:51.027Z,24.53
2018-01-12T08:55:19.919Z,20.43
2018-01-12T08:57:49.658Z,28.40
2018-01-12T09:00:18.767Z,27.33
2018-01-12T09:02:48.302Z,27.97
2018-01-12T09:05:18.075Z,28.43
2018-01-12T09:07:47.462Z,27.37
2018-01-12T09:10:16.335Z,27.10
2018-01-12T09:12:45.198Z,26.83
2018-01-12T09:15:20.828Z,29.10
2018-01-12T09:17:49.728Z,27.83
2018-01-12T09:20:18.912Z,28.40
2018-01-12T09:22:48.068Z,27.83
2018-01-12T09:25:23.562Z,26.00
2018-01-12T09:27:52.444Z,26.87
2018-01-12T09:30:21.304Z,26.97
2018-01-12T09:32:50.868Z,26.80
2018-01-12T09:35:20.139Z,28.80
2018-01-12T09:37:56.130Z,28.63
2018-01-12T09:40:30.998Z,26.93
2018-01-12T09:43:01.027Z,27.10
2018-01-12T09:45:29.952Z,25.77
2018-01-12T09:48:05.539Z,26.53
2018-01-12T09:50:35.416Z,25.60
2018-01-12T09:53:04.325Z,24.40
2018-01-12T09:55:35.075Z,25.80
2018-01-12T09:58:04.089Z,26.20
2018-01-12T10:00:38.849Z,27.30
2018-01-12T10:03:07.742Z,26.83
2018-01-12T10:05:37.050Z,24.17
2018-01-12T10:08:05.978Z,24.20
2018-01-12T10:10:35.155Z,26.30
2018-01-12T10:13:04.445Z,24.87
2018-01-12T10:15:33.294Z,26.77
2018-01-12T10:18:17.036Z,26.17
2018-01-12T10:20:45.878Z,26.07
2018-01-12T10:23:14.721Z,26.07
2018-01-12T10:25:43.602Z,24.83
2018-01-12T10:28:12.502Z,23.30
2018-01-12T10:30:45.306Z,26.17
2018-01-12T10:33:17.020Z,25.37
2018-01-12T10:35:51.889Z,26.93
2018-01-12T10:38:20.723Z,27.13
2018-01-12T10:40:55.589Z,26.60
2018-01-12T10:43:24.534Z,26.17
2018-01-12T10:45:54.520Z,26.03
2018-01-12T10:48:31.470Z,27.43
2018-01-12T10:51:07.142Z,26.70
2018-01-12T10:53:36.071Z,26.70
2018-01-12T10:56:04.924Z,26.43
2018-01-12T10:58:34.816Z,24.00
2018-01-12T11:01:08.399Z,28.40
2018-01-12T11:03:37.236Z,28.20
2018-01-12T11:06:06.187Z,28.50
2018-01-12T11:08:35.084Z,28.93
2018-01-12T11:11:03.996Z,24.30
2018-01-12T11:13:32.854Z,28.87
2018-01-12T11:16:01.762Z,29.03
2018-01-12T11:18:30.646Z,26.63
2018-01-12T11:21:00.245Z,29.23
2018-01-12T11:23:29.079Z,25.80
2018-01-12T11:25:57.924Z,26.67
2018-01-12T11:28:26.822Z,27.73
2018-01-12T11:30:55.713Z,26.87
2018-01-12T11:33:24.891Z,26.07
2018-01-12T11:35:57.427Z,26.60
2018-01-12T11:38:26.272Z,25.80
2018-01-12T11:40:55.146Z,25.47
2018-01-12T11:43:24.061Z,35.10
2018-01-12T11:45:52.956Z,29.20
2018-01-12T11:48:21.834Z,27.50
2018-01-12T11:50:50.734Z,27.80
2018-01-12T11:53:19.684Z,26.47
2018-01-12T11:55:49.017Z,26.67
2018-01-12T11:58:17.876Z,26.63
2018-01-12T12:00:46.726Z,21.00
2018-01-12T12:03:16.374Z,26.30
2018-01-12T12:05:45.288Z,27.03
2018-01-12T12:08:14.633Z,26.07
2018-01-12T12:10:43.530Z,28.07
2018-01-12T12:13:12.378Z,25.17
2018-01-12T12:15:41.604Z,28.07
2018-01-12T12:18:10.614Z,26.63
2018-01-12T12:20:39.446Z,26.23
2018-01-12T12:23:09.428Z,28.17
2018-01-12T12:25:39.242Z,28.13
2018-01-12T12:28:08.172Z,27.90
2018-01-12T12:30:37.013Z,29.67
2018-01-12T12:33:06.077Z,24.43
2018-01-12T12:35:34.944Z,28.27
2018-01-12T12:38:03.804Z,28.57
2018-01-12T12:40:33.696Z,28.57
2018-01-12T12:43:02.558Z,22.53
2018-01-12T12:45:32.463Z,27.50
2018-01-12T12:48:01.317Z,27.80
2018-01-12T12:50:30.180Z,29.63
2018-01-12T12:52:59.090Z,27.47
2018-01-12T12:55:27.932Z,28.43
2018-01-12T12:57:56.804Z,24.97
2018-01-12T13:00:25.661Z,29.63
2018-01-12T13:02:55.088Z,25.97
2018-01-12T13:05:24.442Z,28.90
2018-01-12T13:07:54.200Z,26.90
2018-01-12T13:10:24.017Z,34.97
2018-01-12T13:12:52.918Z,29.63
2018-01-12T13:15:21.836Z,29.17
2018-01-12T13:17:51.687Z,27.23
2018-01-12T13:20:21.432Z,27.57
2018-01-12T13:22:51.272Z,27.40
2018-01-12T13:25:20.146Z,28.27
2018-01-12T13:27:49.062Z,27.67
2018-01-12T13:30:18.100Z,29.37
2018-01-12T13:32:46.934Z,29.67
2018-01-12T13:35:15.830Z,29.10
2018-01-12T13:37:44.666Z,28.87
2018-01-12T13:40:14.484Z,28.70
2018-01-12T13:42:43.353Z,29.80
2018-01-12T13:45:12.664Z,30.47
2018-01-12T13:47:41.951Z,31.03
2018-01-12T13:50:10.930Z,30.30
2018-01-12T13:52:39.765Z,31.80
2018-01-12T13:55:08.602Z,30.53
2018-01-12T13:57:38.194Z,28.37
2018-01-12T14:00:07.095Z,32.60
2018-01-12T14:02:36.593Z,31.33
2018-01-12T14:05:05.457Z,32.80
2018-01-12T14:07:34.299Z,32.50
2018-01-12T14:10:03.153Z,19.17
2018-01-12T14:12:32.031Z,25.77
2018-01-12T14:15:00.885Z,29.53
2018-01-12T14:17:30.444Z,29.00
2018-01-12T14:19:59.308Z,34.20
2018-01-12T14:22:28.202Z,39.47
2018-01-12T14:24:57.587Z,30.30
2018-01-12T14:27:26.496Z,31.23
2018-01-12T14:29:56.147Z,30.30
2018-01-12T14:32:25.039Z,31.17
2018-01-12T14:34:54.962Z,33.63
2018-01-12T14:37:23.813Z,30.10
2018-01-12T14:39:52.659Z,29.73
2018-01-12T14:42:21.559Z,29.37
2018-01-12T14:44:50.393Z,25.50
2018-01-12T14:47:19.223Z,30.87
2018-01-12T14:49:48.707Z,26.53
2018-01-12T14:52:17.568Z,29.97
2018-01-12T14:54:46.449Z,30.47
2018-01-12T14:57:15.319Z,25.70
2018-01-12T14:59:44.171Z,29.80
2018-01-12T15:02:14.234Z,30.87
2018-01-12T15:04:43.637Z,30.57
2018-01-12T15:07:12.464Z,27.17
2018-01-12T15:09:41.391Z,27.50
2018-01-12T15:12:10.235Z,32.90
2018-01-12T15:14:39.084Z,30.83
2018-01-12T15:17:07.987Z,29.97
2018-01-12T15:19:36.819Z,29.00
2018-01-12T15:22:05.691Z,29.93
2018-01-12T15:24:34.603Z,30.90
2018-01-12T15:27:03.838Z,36.43
2018-01-12T15:29:32.688Z,40.30
2018-01-12T15:32:01.579Z,36.17
2018-01-12T15:34:30.546Z,32.83
2018-01-12T15:37:00.059Z,32.33
2018-01-12T15:39:29.229Z,30.10
2018-01-12T15:41:58.085Z,26.63
2018-01-12T15:44:26.946Z,32.73
2018-01-12T15:46:55.811Z,39.17
2018-01-12T15:49:24.681Z,33.87
2018-01-12T15:51:53.759Z,30.57
2018-01-12T15:54:22.625Z,32.70
2018-01-12T15:56:51.723Z,31.10
2018-01-12T15:59:22.039Z,28.50
2018-01-12T16:01:51.238Z,37.33
2018-01-12T16:04:21.043Z,38.43
2018-01-12T16:06:51.819Z,68.53
2018-01-12T16:09:20.671Z,32.10
2018-01-12T16:11:49.511Z,30.97
2018-01-12T16:14:18.431Z,31.40
2018-01-12T16:16:47.287Z,28.50
2018-01-12T16:19:26.159Z,30.63
2018-01-12T16:21:55.057Z,30.40
2018-01-12T16:24:23.923Z,31.80
2018-01-12T16:26:52.799Z,28.43
2018-01-12T16:29:21.639Z,28.73
2018-01-12T16:31:57.917Z,31.73
2018-01-12T16:34:30.485Z,33.37
2018-01-12T16:36:59.636Z,29.77
2018-01-12T16:39:28.500Z,36.30
2018-01-12T16:41:57.349Z,36.27
2018-01-12T16:44:26.237Z,29.57
2018-01-12T16:46:55.086Z,27.20
2018-01-12T16:49:23.943Z,27.77
2018-01-12T16:51:52.802Z,26.53
2018-01-12T16:54:21.668Z,29.63
2018-01-12T16:56:50.513Z,31.23
2018-01-12T16:59:19.657Z,30.20
2018-01-12T17:01:48.521Z,34.17
2018-01-12T17:04:17.383Z,33.03
2018-01-12T17:06:46.253Z,30.40
2018-01-12T17:09:15.207Z,30.23
2018-01-12T17:14:26.677Z,26.57
2018-01-12T17:16:57.583Z,30.00
2018-01-12T17:19:26.703Z,24.67
2018-01-12T17:21:56.001Z,29.57
2018-01-12T17:24:25.495Z,28.23
2018-01-12T17:26:54.341Z,27.70
2018-01-12T17:29:23.751Z,30.20
2018-01-12T17:34:31.603Z,27.23
2018-01-12T17:37:01.467Z,34.47
2018-01-12T17:39:30.313Z,30.30
2018-01-12T17:42:02.474Z,27.97
2018-01-12T17:44:31.349Z,25.70
2018-01-12T17:47:01.122Z,28.47
2018-01-12T17:49:29.990Z,28.00
2018-01-12T17:51:58.857Z,28.50
2018-01-12T17:54:28.501Z,27.97
2018-01-12T17:56:57.355Z,28.37
2018-01-12T17:59:27.119Z,28.37
2018-01-12T18:01:56.099Z,28.83
2018-01-12T18:04:25.450Z,32.77
2018-01-12T18:06:54.341Z,29.70
2018-01-12T18:09:23.200Z,28.77
2018-01-12T18:11:52.063Z,29.63
2018-01-12T18:16:57.339Z,27.57
2018-01-12T18:19:26.566Z,28.70
2018-01-12T18:21:56.279Z,28.90
2018-01-12T18:24:25.117Z,29.20
2018-01-12T18:26:54.056Z,29.37
2018-01-12T18:29:22.910Z,26.20
2018-01-12T18:31:51.749Z,26.70
2018-01-12T18:34:20.677Z,28.97
2018-01-12T18:36:51.855Z,29.10
2018-01-12T18:39:22.681Z,28.37
2018-01-12T18:41:51.564Z,29.93
2018-01-12T18:44:20.427Z,29.67
2018-01-12T18:46:49.385Z,28.90
2018-01-12T18:49:23.393Z,29.53
2018-01-12T18:51:52.691Z,29.53
2018-01-12T18:54:25.995Z,29.80
2018-01-12T18:56:54.927Z,29.07
2018-01-12T18:59:23.779Z,30.83
2018-01-12T19:01:52.636Z,45.37
2018-01-12T19:04:21.832Z,43.37
2018-01-12T19:06:52.176Z,34.17
2018-01-12T19:09:21.077Z,34.80
2018-01-12T19:11:56.649Z,42.20
2018-01-12T19:14:25.667Z,33.93
2018-01-12T19:16:55.212Z,30.70
2018-01-12T19:19:24.067Z,32.33
2018-01-12T19:21:53.009Z,33.40
2018-01-12T19:24:21.894Z,31.93
2018-01-12T19:26:50.779Z,33.83
2018-01-12T19:29:20.919Z,34.33
2018-01-12T19:31:50.052Z,34.30
2018-01-12T19:34:19.900Z,36.00
2018-01-12T19:36:51.037Z,34.47
2018-01-12T19:42:02.903Z,35.47
2018-01-12T19:44:31.788Z,36.33
2018-01-12T19:47:01.553Z,35.73
2018-01-12T19:49:30.407Z,34.73
2018-01-12T19:51:59.309Z,36.47
2018-01-12T19:54:28.152Z,36.37
2018-01-12T19:56:57.037Z,36.37
2018-01-12T19:59:25.918Z,36.33
2018-01-12T20:01:55.396Z,36.03
2018-01-12T20:04:25.370Z,32.97
2018-01-12T20:06:54.306Z,32.37
2018-01-12T20:09:23.411Z,30.90
2018-01-12T20:11:53.209Z,33.03
2018-01-12T20:14:22.645Z,32.83
2018-01-12T20:16:51.486Z,33.60
2018-01-12T20:19:22.402Z,32.00
2018-01-12T20:21:51.577Z,32.23
2018-01-12T20:24:20.456Z,32.30
2018-01-12T20:26:49.348Z,31.07
2018-01-12T20:29:18.423Z,37.77
2018-01-12T20:31:47.649Z,32.60
2018-01-12T20:34:16.598Z,32.23
2018-01-12T20:36:45.751Z,32.10
2018-01-12T20:39:14.641Z,31.53
2018-01-12T20:41:43.596Z,31.50
2018-01-12T20:44:12.678Z,28.97
2018-01-12T20:46:41.511Z,33.20
2018-01-12T20:49:12.677Z,31.43
2018-01-12T20:51:41.523Z,31.40
2018-01-12T20:54:11.178Z,30.77
2018-01-12T20:56:41.510Z,31.90
2018-01-12T20:59:10.386Z,31.77
2018-01-12T21:01:39.280Z,29.43
2018-01-12T21:04:08.128Z,31.60
2018-01-12T21:06:39.848Z,31.37
2018-01-12T21:09:08.717Z,31.83
2018-01-12T21:11:37.553Z,30.70
2018-01-12T21:14:06.463Z,30.53
2018-01-12T21:16:35.303Z,29.83
2018-01-12T21:19:04.383Z,32.90
2018-01-12T21:21:33.279Z,32.00
2018-01-12T21:24:02.221Z,31.27
2018-01-12T21:26:31.102Z,31.90
2018-01-12T21:29:00.035Z,31.50
2018-01-12T21:31:30.179Z,31.00
2018-01-12T21:33:59.069Z,32.73
2018-01-12T21:36:27.923Z,31.20
2018-01-12T21:38:57.846Z,33.03
2018-01-12T21:41:26.681Z,32.67
2018-01-12T21:43:55.729Z,32.10
2018-01-12T21:46:25.377Z,31.97
2018-01-12T21:48:55.000Z,32.60
2018-01-12T21:51:23.833Z,32.43
2018-01-12T21:53:54.085Z,32.73
2018-01-12T21:56:22.947Z,32.57
2018-01-12T21:58:52.607Z,30.87
2018-01-12T22:01:21.459Z,31.03
2018-01-12T22:03:50.343Z,31.37
2018-01-12T22:06:19.241Z,30.23
2018-01-12T22:08:48.123Z,33.67
2018-01-12T22:11:17.003Z,32.57
2018-01-12T22:13:45.835Z,31.17
2018-01-12T22:16:14.705Z,36.03
2018-01-12T22:18:43.701Z,34.43
2018-01-12T22:21:12.609Z,51.23
2018-01-12T22:23:41.449Z,32.03
2018-01-12T22:26:10.373Z,31.43
2018-01-12T22:28:39.208Z,30.93
2018-01-12T22:31:08.065Z,32.07
2018-01-12T22:33:36.951Z,30.43
2018-01-12T22:36:05.877Z,31.37
2018-01-12T22:38:34.733Z,30.27
2018-01-12T22:41:03.583Z,33.20
2018-01-12T22:43:32.431Z,33.90
2018-01-12T22:46:01.261Z,32.23
2018-01-12T22:48:30.123Z,31.77
2018-01-12T22:50:58.997Z,32.83
2018-01-12T22:53:27.844Z,31.33
2018-01-12T22:55:56.735Z,30.63
2018-01-12T22:58:25.655Z,30.70
2018-01-12T23:00:55.091Z,34.67
2018-01-12T23:03:23.953Z,32.30
2018-01-12T23:05:52.909Z,30.60
2018-01-12T23:08:22.157Z,31.03
2018-01-12T23:10:51.075Z,32.63
2018-01-12T23:13:19.913Z,31.67
2018-01-12T23:15:49.315Z,34.00
2018-01-12T23:18:18.871Z,31.83
2018-01-12T23:20:47.763Z,33.80
2018-01-12T23:23:16.607Z,31.93
2018-01-12T23:25:45.489Z,34.30
2018-01-12T23:28:15.602Z,31.00
2018-01-12T23:30:44.487Z,32.67
2018-01-12T23:33:14.609Z,32.07
2018-01-12T23:35:43.478Z,33.37
2018-01-12T23:38:12.350Z,34.23
2018-01-12T23:40:41.233Z,33.50
2018-01-12T23:43:10.091Z,33.50
2018-01-12T23:45:39.873Z,33.73
2018-01-12T23:48:08.768Z,32.73
2018-01-12T23:50:39.544Z,31.87
2018-01-12T23:53:08.409Z,31.53
2018-01-12T23:55:37.272Z,31.70
2018-01-12T23:58:10.329Z,32.07
